createdAt,value
2022-11-05T00:00:39.765Z,59.41
2022-11-05T00:03:29.954Z,56.93
2022-11-05T00:06:17.256Z,57.28
2022-11-05T00:09:04.781Z,58.32
2022-11-05T00:11:52.004Z,59.33
2022-11-05T00:14:39.428Z,63.82
2022-11-05T00:17:07.805Z,67.86
2022-11-05T00:19:36.285Z,64.95
2022-11-05T00:22:23.200Z,59.75
2022-11-05T00:25:10.828Z,56.97
2022-11-05T00:27:39.063Z,57.34
2022-11-05T00:30:09.315Z,58.94
2022-11-05T00:32:38.730Z,60.20
2022-11-05T00:35:08.448Z,62.79
2022-11-05T00:37:36.901Z,64.74
2022-11-05T00:40:06.736Z,64.84
2022-11-05T00:42:53.456Z,64.50
2022-11-05T00:45:22.180Z,64.38
2022-11-05T00:48:09.219Z,63.53
2022-11-05T00:50:37.827Z,63.33
2022-11-05T00:53:07.062Z,63.03
2022-11-05T00:55:46.090Z,62.31
2022-11-05T00:58:20.181Z,62.18
2022-11-05T01:00:56.531Z,61.92
2022-11-05T01:03:47.413Z,61.77
2022-11-05T01:06:18.887Z,61.58
2022-11-05T01:08:47.466Z,61.16
2022-11-05T01:11:33.574Z,60.89
2022-11-05T01:14:05.241Z,60.67
2022-11-05T01:16:34.384Z,59.08
2022-11-05T01:19:04.945Z,58.11
2022-11-05T01:21:33.610Z,58.81
2022-11-05T01:24:02.864Z,59.90
2022-11-05T01:26:31.307Z,62.39
2022-11-05T01:29:02.655Z,64.56
2022-11-05T01:31:31.034Z,64.75
2022-11-05T01:34:00.982Z,66.16
2022-11-05T01:36:29.325Z,65.18
2022-11-05T01:38:57.712Z,62.60
2022-11-05T01:41:26.901Z,58.84
2022-11-05T01:43:59.262Z,57.27
2022-11-05T01:46:42.804Z,57.85
2022-11-05T01:49:31.972Z,58.79
2022-11-05T01:52:04.856Z,61.73
2022-11-05T01:54:35.802Z,64.27
2022-11-05T01:57:09.202Z,64.21
2022-11-05T02:00:04.398Z,63.79
2022-11-05T02:02:41.601Z,63.67
2022-11-05T02:05:14.188Z,62.84
2022-11-05T02:07:46.298Z,62.49
2022-11-05T02:10:17.999Z,62.24
2022-11-05T02:12:51.025Z,61.85
2022-11-05T02:15:38.074Z,61.47
2022-11-05T02:18:27.460Z,61.28
2022-11-05T02:21:38.068Z,60.84
2022-11-05T02:24:25.861Z,61.19
2022-11-05T02:27:02.531Z,60.86
2022-11-05T02:29:52.630Z,60.45
2022-11-05T02:32:51.955Z,60.44
2022-11-05T02:35:40.680Z,60.73
2022-11-05T02:38:11.627Z,60.54
2022-11-05T02:41:01.551Z,60.07
2022-11-05T02:43:52.814Z,60.57
2022-11-05T02:46:41.572Z,60.52
2022-11-05T02:49:26.549Z,60.62
2022-11-05T02:52:03.205Z,60.46
2022-11-05T02:54:50.576Z,60.28
2022-11-05T02:57:22.355Z,60.35
2022-11-05T03:00:21.059Z,60.13
2022-11-05T03:02:49.721Z,60.30
2022-11-05T03:05:23.879Z,60.37
2022-11-05T03:07:59.352Z,60.30
2022-11-05T03:10:43.213Z,60.12
2022-11-05T03:13:16.542Z,60.09
2022-11-05T03:16:04.499Z,60.08
2022-11-05T03:19:10.183Z,60.06
2022-11-05T03:21:53.371Z,60.22
2022-11-05T03:24:26.681Z,60.13
2022-11-05T03:27:11.006Z,60.39
2022-11-05T03:30:05.376Z,60.63
2022-11-05T03:32:38.702Z,60.44
2022-11-05T03:35:18.870Z,60.37
2022-11-05T03:37:50.186Z,60.39
2022-11-05T03:40:20.938Z,60.61
2022-11-05T03:42:54.175Z,60.89
2022-11-05T03:45:28.096Z,60.89
2022-11-05T03:48:00.127Z,61.17
2022-11-05T03:50:41.242Z,61.65
2022-11-05T03:53:16.171Z,62.69
2022-11-05T03:56:05.826Z,63.42
2022-11-05T03:58:36.042Z,62.69
2022-11-05T04:01:04.401Z,59.00
2022-11-05T04:03:36.645Z,58.00
2022-11-05T04:06:26.135Z,58.62
2022-11-05T04:09:13.233Z,59.33
2022-11-05T04:12:08.244Z,63.55
2022-11-05T04:14:36.366Z,64.44
2022-11-05T04:17:09.742Z,64.06
2022-11-05T04:20:01.924Z,63.89
2022-11-05T04:22:51.758Z,63.61
2022-11-05T04:25:21.165Z,64.25
2022-11-05T04:27:50.131Z,66.95
2022-11-05T04:30:19.810Z,65.71
2022-11-05T04:33:04.956Z,63.53
2022-11-05T04:35:39.947Z,59.50
2022-11-05T04:38:11.156Z,56.90
2022-11-05T04:40:43.356Z,57.90
2022-11-05T04:43:17.665Z,59.31
2022-11-05T04:45:46.709Z,63.92
2022-11-05T04:48:14.941Z,65.50
2022-11-05T04:50:43.510Z,64.26
2022-11-05T04:53:12.665Z,61.79
2022-11-05T04:55:41.099Z,60.67
2022-11-05T04:58:09.597Z,60.41
2022-11-05T05:00:38.402Z,60.28
2022-11-05T05:03:06.648Z,60.05
2022-11-05T05:05:35.243Z,58.51
2022-11-05T05:08:06.791Z,57.73
2022-11-05T05:10:35.441Z,58.36
2022-11-05T05:13:03.641Z,59.71
2022-11-05T05:15:32.978Z,62.66
2022-11-05T05:18:01.327Z,64.79
2022-11-05T05:20:48.083Z,65.10
2022-11-05T05:23:16.882Z,64.97
2022-11-05T05:25:45.510Z,64.08
2022-11-05T05:28:13.776Z,63.37
2022-11-05T05:30:42.359Z,63.05
2022-11-05T05:33:10.964Z,62.87
2022-11-05T05:35:39.730Z,62.37
2022-11-05T05:38:08.415Z,62.14
2022-11-05T05:40:36.998Z,61.45
2022-11-05T05:43:05.529Z,61.08
2022-11-05T05:45:35.711Z,61.25
2022-11-05T05:48:04.390Z,60.84
2022-11-05T05:50:33.176Z,60.77
2022-11-05T05:53:09.292Z,60.88
2022-11-05T05:55:38.020Z,60.75
2022-11-05T05:58:06.604Z,60.78
2022-11-05T06:00:36.812Z,60.81
2022-11-05T06:03:06.424Z,60.87
2022-11-05T06:05:35.054Z,60.97
2022-11-05T06:08:03.718Z,60.92
2022-11-05T06:10:32.157Z,60.57
2022-11-05T06:13:01.276Z,60.37
2022-11-05T06:15:34.697Z,60.43
2022-11-05T06:18:05.031Z,60.86
2022-11-05T06:20:33.477Z,61.12
2022-11-05T06:23:02.177Z,61.25
2022-11-05T06:25:30.739Z,61.38
2022-11-05T06:27:59.738Z,62.69
2022-11-05T06:30:27.988Z,63.33
2022-11-05T06:32:56.175Z,61.93
2022-11-05T06:35:24.667Z,59.11
2022-11-05T06:37:53.255Z,57.72
2022-11-05T06:40:21.525Z,58.43
2022-11-05T06:42:52.775Z,59.52
2022-11-05T06:45:22.097Z,62.03
2022-11-05T06:47:56.092Z,64.22
2022-11-05T06:50:26.094Z,66.12
2022-11-05T06:53:02.058Z,66.30
2022-11-05T06:55:31.972Z,64.32
2022-11-05T06:58:00.256Z,61.56
2022-11-05T07:00:28.693Z,61.07
2022-11-05T07:03:04.710Z,58.40
2022-11-05T07:05:35.414Z,57.48
2022-11-05T07:08:04.039Z,58.57
2022-11-05T07:10:32.678Z,59.83
2022-11-05T07:13:05.136Z,62.20
2022-11-05T07:15:37.533Z,64.25
2022-11-05T07:18:07.579Z,64.69
2022-11-05T07:20:36.088Z,64.65
2022-11-05T07:23:07.657Z,65.76
2022-11-05T07:25:35.990Z,64.33
2022-11-05T07:28:05.174Z,62.14
2022-11-05T07:30:34.765Z,58.96
2022-11-05T07:33:03.706Z,57.84
2022-11-05T07:35:32.545Z,58.91
2022-11-05T07:38:01.374Z,60.02
2022-11-05T07:40:30.410Z,62.37
2022-11-05T07:43:00.619Z,64.53
2022-11-05T07:45:30.970Z,66.59
2022-11-05T07:48:01.259Z,66.53
2022-11-05T07:50:32.690Z,64.44
2022-11-05T07:53:10.620Z,63.24
2022-11-05T07:55:41.667Z,62.02
2022-11-05T07:58:11.068Z,61.52
2022-11-05T08:00:39.466Z,61.50
2022-11-05T08:03:13.049Z,61.49
2022-11-05T08:05:44.705Z,61.19
2022-11-05T08:08:15.592Z,61.06
2022-11-05T08:10:44.567Z,61.82
2022-11-05T08:13:14.159Z,60.92
2022-11-05T08:15:43.389Z,58.28
2022-11-05T08:18:17.509Z,56.58
2022-11-05T08:20:46.948Z,57.53
2022-11-05T08:23:15.878Z,59.05
2022-11-05T08:25:44.450Z,62.72
2022-11-05T08:28:13.753Z,65.85
2022-11-05T08:30:42.693Z,64.92
2022-11-05T08:33:13.423Z,63.36
2022-11-05T08:35:42.283Z,61.81
2022-11-05T08:38:16.422Z,58.39
2022-11-05T08:40:46.495Z,57.10
2022-11-05T08:43:15.737Z,58.48
2022-11-05T08:45:44.074Z,59.77
2022-11-05T08:48:15.625Z,64.16
2022-11-05T08:50:46.626Z,66.15
2022-11-05T08:53:16.026Z,65.01
2022-11-05T08:55:46.515Z,63.54
2022-11-05T08:58:17.190Z,62.32
2022-11-05T09:00:48.079Z,61.49
2022-11-05T09:03:17.488Z,61.30
2022-11-05T09:05:46.298Z,60.49
2022-11-05T09:08:17.395Z,58.38
2022-11-05T09:10:47.441Z,57.22
2022-11-05T09:13:19.426Z,58.97
2022-11-05T09:15:50.090Z,62.07
2022-11-05T09:18:19.509Z,64.22
2022-11-05T09:20:48.198Z,63.16
2022-11-05T09:23:17.194Z,61.96
2022-11-05T09:25:45.964Z,61.05
2022-11-05T09:28:20.319Z,59.72
2022-11-05T09:30:51.222Z,59.63
2022-11-05T09:33:23.174Z,60.49
2022-11-05T09:35:52.817Z,60.25
2022-11-05T09:38:21.232Z,60.45
2022-11-05T09:41:07.478Z,58.77
2022-11-05T09:43:40.600Z,57.99
2022-11-05T09:46:25.332Z,59.32
2022-11-05T09:49:02.274Z,62.94
2022-11-05T09:51:31.636Z,65.77
2022-11-05T09:54:01.370Z,65.29
2022-11-05T09:56:34.407Z,63.30
2022-11-05T09:59:07.088Z,62.22
2022-11-05T10:01:37.764Z,61.52
2022-11-05T10:04:13.245Z,61.57
2022-11-05T10:06:56.845Z,61.29
2022-11-05T10:09:28.043Z,61.23
2022-11-05T10:12:45.675Z,61.36
2022-11-05T10:15:24.222Z,61.43
2022-11-05T10:18:11.509Z,61.36
2022-11-05T10:20:42.675Z,61.74
2022-11-05T10:23:17.271Z,61.52
2022-11-05T10:25:51.256Z,60.46
2022-11-05T10:28:22.676Z,60.35
2022-11-05T10:30:57.135Z,61.20
2022-11-05T10:33:34.199Z,60.11
2022-11-05T10:36:07.077Z,59.80
2022-11-05T10:38:35.829Z,59.80
2022-11-05T10:41:31.111Z,60.04
2022-11-05T10:44:07.589Z,60.23
2022-11-05T10:46:46.944Z,60.00
2022-11-05T10:49:26.578Z,59.78
2022-11-05T10:52:03.542Z,59.88
2022-11-05T10:54:35.338Z,60.02
2022-11-05T10:57:28.584Z,60.09
2022-11-05T11:00:15.262Z,59.96
2022-11-05T11:02:46.413Z,60.05
2022-11-05T11:05:39.575Z,59.80
2022-11-05T11:08:11.399Z,59.80
2022-11-05T11:10:50.473Z,60.05
2022-11-05T11:13:45.426Z,59.68
2022-11-05T11:16:21.940Z,59.62
2022-11-05T11:19:00.959Z,59.73
2022-11-05T11:21:31.948Z,58.66
2022-11-05T11:24:03.182Z,57.95
2022-11-05T11:26:35.419Z,59.56
2022-11-05T11:29:28.134Z,62.17
2022-11-05T11:31:58.492Z,63.23
2022-11-05T11:34:31.477Z,63.27
2022-11-05T11:37:12.831Z,62.78
2022-11-05T11:39:48.833Z,62.51
2022-11-05T11:42:26.584Z,62.21
2022-11-05T11:44:59.187Z,62.04
2022-11-05T11:47:29.068Z,61.56
2022-11-05T11:49:59.588Z,61.58
2022-11-05T11:52:32.358Z,61.11
2022-11-05T11:55:22.098Z,61.14
2022-11-05T11:57:53.243Z,60.80
2022-11-05T12:00:25.991Z,60.45
2022-11-05T12:03:04.525Z,60.44
2022-11-05T12:05:34.145Z,60.81
2022-11-05T12:08:35.093Z,60.27
2022-11-05T12:11:04.813Z,60.02
2022-11-05T12:14:04.825Z,59.87
2022-11-05T12:16:46.000Z,59.77
2022-11-05T12:19:34.543Z,59.89
2022-11-05T12:22:15.083Z,59.53
2022-11-05T12:25:16.051Z,58.46
2022-11-05T12:28:08.839Z,57.76
2022-11-05T12:30:45.984Z,58.92
2022-11-05T12:33:53.816Z,58.32
2022-11-05T12:36:36.795Z,62.15
2022-11-05T12:39:23.908Z,63.69
2022-11-05T12:42:06.832Z,63.66
2022-11-05T12:45:05.228Z,63.30
2022-11-05T12:47:59.183Z,62.61
2022-11-05T12:50:51.471Z,61.96
2022-11-05T12:54:10.511Z,61.81
2022-11-05T12:56:41.982Z,62.87
2022-11-05T12:59:43.152Z,61.48
2022-11-05T13:02:22.462Z,60.27
2022-11-05T13:05:20.130Z,58.93
2022-11-05T13:08:07.456Z,57.66
2022-11-05T13:10:43.492Z,59.08
2022-11-05T13:13:39.747Z,60.23
2022-11-05T13:16:30.101Z,62.67
2022-11-05T13:19:13.545Z,64.43
2022-11-05T13:21:52.162Z,63.85
2022-11-05T13:24:25.501Z,62.65
2022-11-05T13:27:04.835Z,62.12
2022-11-05T13:29:43.956Z,61.88
2022-11-05T13:32:31.449Z,61.63
2022-11-05T13:35:03.596Z,61.72
2022-11-05T13:37:56.472Z,61.59
2022-11-05T13:40:46.999Z,61.35
2022-11-05T13:44:00.541Z,60.59
2022-11-05T13:46:45.481Z,60.51
2022-11-05T13:49:29.183Z,60.37
2022-11-05T13:52:04.822Z,60.12
2022-11-05T13:54:51.411Z,59.89
2022-11-05T13:57:35.403Z,59.73
2022-11-05T14:00:17.111Z,59.76
2022-11-05T14:02:57.899Z,59.71
2022-11-05T14:05:34.013Z,60.53
2022-11-05T14:08:18.586Z,59.62
2022-11-05T14:11:01.159Z,58.16
2022-11-05T14:13:34.895Z,57.89
2022-11-05T14:16:09.149Z,58.91
2022-11-05T14:18:52.776Z,60.19
2022-11-05T14:21:27.373Z,62.22
2022-11-05T14:23:57.894Z,64.17
2022-11-05T14:26:32.350Z,64.28
2022-11-05T14:29:04.059Z,63.92
2022-11-05T14:32:07.899Z,63.26
2022-11-05T14:34:54.206Z,62.74
2022-11-05T14:37:37.070Z,62.63
2022-11-05T14:40:27.801Z,62.40
2022-11-05T14:42:59.156Z,62.01
2022-11-05T14:45:38.213Z,61.62
2022-11-05T14:48:27.401Z,61.40
2022-11-05T14:50:58.955Z,61.31
2022-11-05T14:53:39.672Z,61.01
2022-11-05T14:56:12.957Z,60.77
2022-11-05T14:58:42.916Z,60.41
2022-11-05T15:01:14.579Z,60.26
2022-11-05T15:03:46.188Z,60.41
2022-11-05T15:50:19.000Z,62.15
2022-11-05T15:52:53.239Z,62.18
2022-11-05T15:55:24.937Z,61.75
2022-11-05T15:58:02.525Z,60.94
2022-11-05T16:00:32.522Z,59.48
2022-11-05T16:03:21.934Z,58.28
2022-11-05T16:05:49.678Z,58.42
2022-11-05T16:08:22.985Z,59.82
2022-11-05T16:10:53.807Z,61.66
2022-11-05T16:13:34.878Z,63.87
2022-11-05T16:16:05.636Z,63.71
2022-11-05T16:18:35.388Z,63.28
2022-11-05T16:21:09.217Z,62.91
2022-11-05T16:23:59.425Z,62.74
2022-11-05T16:29:36.328Z,61.81
2022-11-05T16:32:13.977Z,61.66
2022-11-05T16:34:46.208Z,61.97
2022-11-05T16:37:15.110Z,62.30
2022-11-05T16:39:42.157Z,61.99
2022-11-05T16:42:35.586Z,62.10
2022-11-05T16:45:03.455Z,62.33
2022-11-05T16:47:30.958Z,62.17
2022-11-05T16:49:58.262Z,62.01
2022-11-05T16:52:25.925Z,62.13
2022-11-05T16:54:53.311Z,62.17
2022-11-05T20:33:37.893Z,58.29
2022-11-05T20:36:07.978Z,58.27
2022-11-05T20:38:34.870Z,59.45
2022-11-05T20:41:07.345Z,64.11
2022-11-05T20:43:35.891Z,66.91
2022-11-05T20:46:03.752Z,64.50
2022-11-05T20:48:32.328Z,61.43
2022-11-05T20:51:03.793Z,58.11
2022-11-05T20:53:30.747Z,56.49
2022-11-05T20:55:57.652Z,57.20
2022-11-05T20:58:24.801Z,58.30
2022-11-05T21:00:54.455Z,60.04
2022-11-05T21:03:22.447Z,63.90
2022-11-05T21:05:53.839Z,66.74
2022-11-05T21:08:21.860Z,64.13
2022-11-05T21:10:51.392Z,62.27
2022-11-05T21:13:19.162Z,58.04
2022-11-05T21:15:51.939Z,56.20
2022-11-05T21:18:20.288Z,56.72
2022-11-05T21:20:48.115Z,58.00
2022-11-05T21:23:15.653Z,59.75
2022-11-05T21:25:43.721Z,63.95
2022-11-05T21:28:12.699Z,66.23
2022-11-05T21:30:44.426Z,63.58
2022-11-05T21:33:13.631Z,61.94
2022-11-05T21:35:47.247Z,58.41
2022-11-05T21:38:16.337Z,57.62
2022-11-05T21:40:44.512Z,58.41
2022-11-05T21:43:12.481Z,59.69
2022-11-05T21:45:41.050Z,64.24
2022-11-05T21:48:08.447Z,66.08
2022-11-05T21:50:56.944Z,63.58
2022-11-05T21:53:42.990Z,61.58
2022-11-05T21:56:43.863Z,58.41
2022-11-05T21:59:32.843Z,56.78
2022-11-05T22:02:03.280Z,57.50
2022-11-05T22:04:35.462Z,59.92
2022-11-05T22:07:03.489Z,63.91
2022-11-05T22:09:31.318Z,66.00
2022-11-05T22:11:59.183Z,63.35
2022-11-05T22:14:27.104Z,61.63
2022-11-05T22:16:54.816Z,61.21
2022-11-05T22:19:22.825Z,59.17
2022-11-05T22:21:49.934Z,57.59
2022-11-05T22:24:18.047Z,58.46
2022-11-05T22:26:46.073Z,59.06
2022-11-05T22:29:13.108Z,62.47
2022-11-05T22:31:40.021Z,64.74
2022-11-05T22:34:07.661Z,64.24
2022-11-05T22:36:34.982Z,63.31
2022-11-05T22:39:02.845Z,62.19
2022-11-05T22:41:30.610Z,61.47
2022-11-05T22:43:58.275Z,61.17
2022-11-05T22:46:26.402Z,60.45
2022-11-05T22:48:55.404Z,60.29
2022-11-05T22:51:25.140Z,60.07
2022-11-05T22:53:54.104Z,58.68
2022-11-05T22:56:23.723Z,58.12
2022-11-05T22:58:50.883Z,58.84
2022-11-05T23:01:19.506Z,59.87
2022-11-05T23:03:48.270Z,62.94
2022-11-05T23:06:36.921Z,65.34
2022-11-05T23:09:30.693Z,64.91
2022-11-05T23:11:58.354Z,65.03
2022-11-05T23:14:26.334Z,64.06
2022-11-05T23:17:12.324Z,62.20
2022-11-05T23:19:58.818Z,58.72
2022-11-05T23:22:46.960Z,56.39
2022-11-05T23:25:17.545Z,57.17
2022-11-05T23:27:47.690Z,58.75
2022-11-05T23:30:20.442Z,59.91
2022-11-05T23:32:47.993Z,64.61
2022-11-05T23:35:15.296Z,66.77
2022-11-05T23:38:00.885Z,64.88
2022-11-05T23:40:51.482Z,62.43
2022-11-05T23:43:37.066Z,59.21
2022-11-05T23:46:22.453Z,56.76
2022-11-05T23:48:50.115Z,58.16
2022-11-05T23:51:17.048Z,59.18
2022-11-05T23:53:43.992Z,63.39
2022-11-05T23:56:13.494Z,65.82
2022-11-05T23:58:41.342Z,63.90
